createdAt,value
2023-06-19T00:00:48.418Z,54.96
2023-06-19T00:03:14.631Z,55.45
2023-06-19T00:05:40.819Z,55.57
2023-06-19T00:08:06.984Z,55.83
2023-06-19T00:10:33.138Z,55.89
2023-06-19T00:12:59.281Z,55.61
2023-06-19T00:15:25.443Z,55.58
2023-06-19T00:17:51.607Z,55.23
2023-06-19T00:20:17.759Z,55.54
2023-06-19T00:22:43.934Z,55.53
2023-06-19T00:25:10.079Z,55.25
2023-06-19T00:27:36.208Z,55.39
2023-06-19T00:30:02.343Z,55.16
2023-06-19T00:32:28.491Z,55.00
2023-06-19T00:34:54.674Z,54.76
2023-06-19T00:37:20.831Z,54.77
2023-06-19T00:39:46.972Z,54.52
2023-06-19T00:42:13.111Z,55.58
2023-06-19T00:44:39.266Z,54.46
2023-06-19T00:47:05.459Z,54.15
2023-06-19T00:49:31.665Z,54.65
2023-06-19T00:51:57.831Z,55.20
2023-06-19T00:54:23.976Z,55.80
2023-06-19T00:56:50.126Z,56.09
2023-06-19T00:59:16.279Z,55.51
2023-06-19T01:01:42.447Z,56.58
2023-06-19T01:04:08.801Z,57.40
2023-06-19T01:06:35.030Z,57.10
2023-06-19T01:09:01.196Z,57.10
2023-06-19T01:11:27.920Z,56.37
2023-06-19T01:13:54.284Z,56.41
2023-06-19T01:16:20.450Z,56.80
2023-06-19T01:18:46.611Z,56.62
2023-06-19T01:21:12.764Z,55.92
2023-06-19T01:23:38.932Z,55.19
2023-06-19T01:26:05.080Z,55.84
2023-06-19T01:28:31.253Z,56.15
2023-06-19T01:30:57.378Z,56.42
2023-06-19T01:33:23.529Z,55.72
2023-06-19T01:35:49.708Z,55.77
2023-06-19T01:38:15.872Z,55.45
2023-06-19T01:40:42.018Z,55.45
2023-06-19T01:43:08.208Z,55.37
2023-06-19T01:45:34.373Z,55.98
2023-06-19T01:48:00.570Z,55.56
2023-06-19T01:50:26.801Z,54.25
2023-06-19T01:52:52.942Z,54.31
2023-06-19T01:55:19.081Z,53.68
2023-06-19T01:57:45.237Z,53.98
2023-06-19T02:00:11.474Z,54.27
2023-06-19T02:02:37.724Z,55.19
2023-06-19T02:05:03.967Z,55.06
2023-06-19T02:07:30.128Z,55.81
2023-06-19T02:09:56.263Z,55.70
2023-06-19T02:12:22.436Z,56.24
2023-06-19T02:14:48.603Z,56.94
2023-06-19T02:17:14.755Z,57.30
2023-06-19T02:19:40.914Z,56.85
2023-06-19T02:22:07.071Z,57.33
2023-06-19T02:24:33.338Z,57.84
2023-06-19T02:26:59.515Z,58.20
2023-06-19T02:29:25.641Z,57.89
2023-06-19T02:31:51.794Z,57.47
2023-06-19T02:34:17.966Z,56.10
2023-06-19T02:36:44.141Z,56.72
2023-06-19T02:39:10.272Z,56.74
2023-06-19T02:41:36.416Z,56.76
2023-06-19T02:44:02.563Z,56.14
2023-06-19T02:46:28.932Z,56.53
2023-06-19T02:48:55.127Z,56.63
2023-06-19T02:51:21.284Z,56.80
2023-06-19T02:53:47.421Z,56.07
2023-06-19T02:56:13.581Z,56.53
2023-06-19T02:58:39.738Z,57.94
2023-06-19T03:01:05.947Z,62.09
2023-06-19T03:03:32.213Z,59.53
2023-06-19T03:05:58.496Z,59.22
2023-06-19T03:08:24.637Z,58.41
2023-06-19T03:10:50.789Z,58.50
2023-06-19T03:13:16.957Z,57.53
2023-06-19T03:15:43.120Z,56.93
2023-06-19T03:18:09.360Z,57.61
2023-06-19T03:20:35.628Z,56.83
2023-06-19T03:23:01.791Z,56.37
2023-06-19T03:25:27.974Z,56.73
2023-06-19T03:27:54.165Z,56.63
2023-06-19T03:30:20.330Z,56.08
2023-06-19T03:32:46.532Z,56.49
2023-06-19T03:35:12.718Z,57.40
2023-06-19T03:37:38.866Z,56.84
2023-06-19T03:40:05.015Z,57.08
2023-06-19T03:42:31.161Z,56.72
2023-06-19T03:44:57.307Z,56.22
2023-06-19T03:47:23.501Z,57.11
2023-06-19T03:49:49.670Z,57.00
2023-06-19T03:52:15.808Z,56.36
2023-06-19T03:54:41.955Z,55.49
2023-06-19T03:57:08.097Z,55.43
2023-06-19T03:59:34.258Z,55.15
2023-06-19T04:02:01.003Z,55.36
2023-06-19T04:04:27.314Z,55.58
2023-06-19T04:06:53.478Z,55.37
2023-06-19T04:09:19.650Z,55.44
2023-06-19T04:11:45.792Z,55.04
2023-06-19T04:14:11.946Z,54.58
2023-06-19T04:16:38.129Z,54.99
2023-06-19T04:19:04.270Z,54.23
2023-06-19T04:21:30.413Z,54.96
2023-06-19T04:23:56.589Z,54.42
2023-06-19T04:26:22.763Z,54.56
2023-06-19T04:28:48.930Z,54.60
2023-06-19T04:31:15.076Z,53.81
2023-06-19T04:33:41.250Z,54.09
2023-06-19T04:36:07.656Z,54.45
2023-06-19T04:38:33.817Z,54.05
2023-06-19T04:41:00.010Z,52.58
2023-06-19T04:43:26.213Z,53.33
2023-06-19T04:45:52.385Z,53.29
2023-06-19T04:48:18.671Z,52.78
2023-06-19T04:50:44.901Z,53.43
2023-06-19T04:53:11.051Z,53.19
2023-06-19T04:55:37.220Z,54.37
2023-06-19T04:58:03.361Z,52.93
2023-06-19T05:00:29.567Z,53.08
2023-06-19T05:02:55.775Z,52.01
2023-06-19T05:05:24.458Z,54.72
2023-06-19T05:07:50.964Z,54.51
2023-06-19T05:10:17.139Z,52.58
2023-06-19T05:12:43.321Z,53.52
2023-06-19T05:15:09.468Z,53.40
2023-06-19T05:17:35.666Z,53.70
2023-06-19T05:20:01.845Z,52.97
2023-06-19T05:22:28.102Z,53.51
2023-06-19T05:24:54.339Z,54.04
2023-06-19T05:27:20.502Z,54.32
2023-06-19T05:29:46.641Z,53.82
2023-06-19T05:32:12.792Z,54.29
2023-06-19T05:34:38.993Z,54.19
2023-06-19T05:37:05.242Z,54.25
2023-06-19T05:39:31.431Z,54.29
2023-06-19T05:41:57.630Z,54.47
2023-06-19T05:44:24.051Z,53.97
2023-06-19T05:46:50.206Z,54.01
2023-06-19T05:49:16.347Z,54.77
2023-06-19T05:51:42.484Z,53.91
2023-06-19T05:54:08.646Z,53.32
2023-06-19T05:56:34.846Z,53.77
2023-06-19T05:59:01.028Z,53.75
2023-06-19T06:01:27.220Z,54.43
2023-06-19T06:03:53.420Z,53.98
2023-06-19T06:06:19.589Z,54.06
2023-06-19T06:08:45.750Z,54.90
2023-06-19T06:11:11.936Z,54.10
2023-06-19T06:13:38.210Z,53.42
2023-06-19T06:16:04.343Z,51.46
2023-06-19T06:18:30.509Z,52.49
2023-06-19T06:20:56.698Z,50.31
2023-06-19T06:23:22.874Z,49.72
2023-06-19T06:25:49.044Z,49.98
2023-06-19T06:28:15.206Z,49.52
2023-06-19T06:30:41.376Z,48.79
2023-06-19T06:33:07.547Z,49.40
2023-06-19T06:35:33.732Z,48.90
2023-06-19T06:37:59.874Z,47.40
2023-06-19T06:40:26.264Z,47.46
2023-06-19T06:42:52.638Z,47.28
2023-06-19T06:45:18.808Z,47.75
2023-06-19T06:47:45.027Z,49.26
2023-06-19T06:50:11.216Z,50.13
2023-06-19T06:52:37.385Z,50.14
2023-06-19T06:55:03.548Z,50.05
2023-06-19T06:57:29.771Z,49.46
2023-06-19T06:59:55.923Z,48.24
2023-06-19T07:02:22.155Z,46.13
2023-06-19T07:04:48.327Z,46.35
2023-06-19T07:07:15.545Z,46.40
2023-06-19T07:09:41.720Z,45.88
2023-06-19T07:12:07.881Z,46.17
2023-06-19T07:14:34.052Z,44.19
2023-06-19T07:17:00.237Z,43.34
2023-06-19T07:19:26.546Z,43.91
2023-06-19T07:21:52.759Z,43.10
2023-06-19T07:24:18.987Z,42.07
2023-06-19T07:26:45.184Z,43.87
2023-06-19T07:29:11.376Z,43.04
2023-06-19T07:31:37.537Z,42.00
2023-06-19T07:34:03.705Z,42.10
2023-06-19T07:36:29.864Z,40.84
2023-06-19T07:38:56.034Z,40.60
2023-06-19T07:41:22.174Z,40.45
2023-06-19T07:43:48.319Z,39.46
2023-06-19T07:46:14.504Z,40.20
2023-06-19T07:48:40.659Z,41.81
2023-06-19T07:51:06.798Z,43.09
2023-06-19T07:53:32.942Z,46.11
2023-06-19T07:55:59.093Z,46.44
2023-06-19T07:58:25.246Z,47.15
2023-06-19T08:00:51.459Z,47.39
2023-06-19T08:03:17.701Z,46.65
2023-06-19T08:05:43.994Z,45.13
2023-06-19T08:08:10.157Z,46.25
2023-06-19T08:10:36.334Z,45.53
2023-06-19T08:13:02.502Z,46.39
2023-06-19T08:15:28.672Z,45.65
2023-06-19T08:17:54.933Z,44.50
2023-06-19T08:20:21.153Z,44.58
2023-06-19T08:22:47.360Z,45.00
2023-06-19T08:25:13.521Z,45.49
2023-06-19T08:27:39.685Z,44.95
2023-06-19T08:30:05.851Z,45.12
2023-06-19T08:32:32.067Z,44.15
2023-06-19T08:34:58.264Z,43.76
2023-06-19T08:37:24.430Z,42.99
2023-06-19T08:39:50.618Z,44.32
2023-06-19T08:42:16.765Z,42.16
2023-06-19T08:44:42.922Z,41.85
2023-06-19T08:47:09.089Z,40.71
2023-06-19T08:49:35.241Z,40.11
2023-06-19T08:52:01.420Z,41.29
2023-06-19T08:54:27.578Z,41.68
2023-06-19T08:56:53.802Z,41.16
2023-06-19T08:59:19.946Z,42.06
2023-06-19T09:01:46.084Z,41.83
2023-06-19T09:04:12.329Z,42.53
2023-06-19T09:06:38.682Z,41.41
2023-06-19T09:09:04.878Z,42.68
2023-06-19T09:11:31.032Z,39.89
2023-06-19T09:13:57.194Z,40.92
2023-06-19T09:16:23.559Z,41.99
2023-06-19T09:18:49.756Z,43.00
2023-06-19T09:21:15.906Z,42.41
2023-06-19T09:23:42.065Z,43.76
2023-06-19T09:26:08.225Z,42.42
2023-06-19T09:28:34.435Z,43.73
2023-06-19T09:31:00.614Z,43.66
2023-06-19T09:33:26.933Z,41.43
2023-06-19T09:35:53.128Z,42.70
2023-06-19T09:38:19.288Z,42.87
2023-06-19T09:40:45.524Z,42.11
2023-06-19T09:43:11.678Z,41.83
2023-06-19T09:45:37.807Z,41.51
2023-06-19T09:48:04.003Z,42.27
2023-06-19T09:50:30.257Z,40.21
2023-06-19T09:52:56.416Z,39.94
2023-06-19T09:55:22.549Z,41.44
2023-06-19T09:57:48.712Z,40.84
2023-06-19T10:00:14.917Z,41.25
2023-06-19T10:02:41.211Z,42.18
2023-06-19T10:05:07.445Z,40.89
2023-06-19T10:07:33.596Z,40.56
2023-06-19T10:09:59.756Z,40.10
2023-06-19T10:12:25.910Z,40.82
2023-06-19T10:14:52.104Z,39.28
2023-06-19T10:17:18.330Z,40.55
2023-06-19T10:19:44.520Z,39.85
2023-06-19T10:22:10.674Z,39.46
2023-06-19T10:24:37.119Z,39.47
2023-06-19T10:27:03.307Z,37.92
2023-06-19T10:29:29.559Z,37.52
2023-06-19T10:31:56.038Z,37.84
2023-06-19T10:34:22.204Z,38.23
2023-06-19T10:36:48.343Z,36.33
2023-06-19T10:39:14.479Z,36.35
2023-06-19T10:41:40.641Z,35.96
2023-06-19T10:44:06.816Z,37.21
2023-06-19T10:46:33.084Z,36.94
2023-06-19T10:48:59.650Z,35.68
2023-06-19T10:51:25.797Z,36.53
2023-06-19T10:53:51.952Z,36.42
2023-06-19T10:56:18.156Z,37.21
2023-06-19T10:58:44.322Z,37.27
2023-06-19T11:01:10.494Z,37.78
2023-06-19T11:03:36.748Z,37.75
2023-06-19T11:06:02.938Z,37.77
2023-06-19T11:08:29.128Z,39.18
2023-06-19T11:10:55.298Z,38.59
2023-06-19T11:13:21.457Z,38.35
2023-06-19T11:15:47.728Z,38.18
2023-06-19T11:18:13.952Z,38.75
2023-06-19T11:20:40.128Z,38.92
2023-06-19T11:23:06.259Z,38.33
2023-06-19T11:25:32.395Z,38.22
2023-06-19T11:27:58.560Z,37.85
2023-06-19T11:30:24.840Z,39.34
2023-06-19T11:32:51.323Z,38.71
2023-06-19T11:35:17.511Z,38.12
2023-06-19T11:37:43.718Z,38.57
2023-06-19T11:40:09.904Z,38.94
2023-06-19T11:42:36.079Z,38.76
2023-06-19T11:45:02.219Z,38.67
2023-06-19T11:47:28.390Z,39.90
2023-06-19T11:49:54.559Z,39.79
2023-06-19T11:52:20.728Z,39.68
2023-06-19T11:54:46.899Z,39.69
2023-06-19T11:57:13.050Z,38.79
2023-06-19T11:59:39.185Z,42.00
2023-06-19T12:02:05.454Z,42.02
2023-06-19T12:04:31.949Z,46.26
2023-06-19T12:06:58.236Z,48.67
2023-06-19T12:09:24.371Z,52.26
2023-06-19T12:11:50.531Z,51.24
2023-06-19T12:14:16.699Z,50.17
2023-06-19T12:16:42.893Z,50.13
2023-06-19T12:19:09.042Z,46.95
2023-06-19T12:21:39.485Z,46.16
2023-06-19T12:24:07.417Z,45.38
2023-06-19T12:26:33.585Z,46.20
2023-06-19T12:28:59.731Z,45.90
2023-06-19T12:31:25.932Z,43.37
2023-06-19T12:33:52.156Z,42.14
2023-06-19T12:36:18.306Z,40.62
2023-06-19T12:38:44.456Z,39.76
2023-06-19T12:41:10.632Z,40.06
2023-06-19T12:43:36.787Z,35.99
2023-06-19T12:46:02.981Z,37.15
2023-06-19T12:48:29.194Z,37.04
2023-06-19T12:50:55.353Z,37.40
2023-06-19T12:53:21.515Z,37.60
2023-06-19T12:56:00.746Z,37.13
2023-06-19T12:58:29.139Z,36.59
2023-06-19T13:00:55.292Z,38.73
2023-06-19T13:03:21.531Z,39.36
2023-06-19T13:05:47.740Z,35.47
2023-06-19T13:08:13.890Z,37.59
2023-06-19T13:10:40.019Z,38.39
2023-06-19T13:13:06.169Z,37.57
2023-06-19T13:15:32.314Z,34.24
2023-06-19T13:17:58.531Z,35.65
2023-06-19T13:20:24.980Z,34.98
2023-06-19T13:22:51.446Z,35.21
2023-06-19T13:25:17.593Z,35.54
2023-06-19T13:27:43.717Z,35.61
2023-06-19T13:30:09.871Z,34.83
2023-06-19T13:32:36.099Z,34.87
2023-06-19T13:35:02.313Z,39.99
2023-06-19T13:37:28.509Z,37.81
2023-06-19T13:39:54.647Z,37.90
2023-06-19T13:42:20.801Z,35.67
2023-06-19T13:44:48.305Z,35.23
2023-06-19T13:47:16.745Z,36.94
2023-06-19T13:49:42.938Z,35.42
2023-06-19T13:52:09.225Z,34.65
2023-06-19T13:54:35.460Z,35.56
2023-06-19T13:57:01.617Z,36.57
2023-06-19T13:59:27.773Z,37.47
2023-06-19T14:01:53.939Z,35.69
2023-06-19T14:04:20.082Z,36.23
2023-06-19T14:06:46.218Z,36.79
2023-06-19T14:09:12.368Z,36.17
2023-06-19T14:11:38.526Z,35.91
2023-06-19T14:14:04.691Z,35.82
2023-06-19T14:16:30.874Z,35.96
2023-06-19T14:18:57.126Z,36.93
2023-06-19T14:21:23.330Z,37.96
2023-06-19T14:23:49.470Z,39.03
2023-06-19T14:26:15.694Z,40.40
2023-06-19T14:28:41.864Z,40.86
2023-06-19T14:31:08.010Z,40.22
2023-06-19T14:33:34.187Z,41.08
2023-06-19T14:36:00.371Z,40.78
2023-06-19T14:38:26.502Z,39.71
2023-06-19T14:40:52.648Z,40.04
2023-06-19T14:43:18.821Z,40.43
2023-06-19T14:45:44.993Z,40.64
2023-06-19T14:48:11.261Z,41.07
2023-06-19T14:50:37.514Z,40.23
2023-06-19T14:53:03.712Z,40.69
2023-06-19T14:55:29.900Z,40.34
2023-06-19T14:57:56.057Z,41.10
2023-06-19T15:00:22.346Z,40.72
2023-06-19T15:02:48.634Z,41.15
2023-06-19T15:05:14.804Z,40.86
2023-06-19T15:07:40.978Z,40.98
2023-06-19T15:10:07.138Z,40.33
2023-06-19T15:12:33.332Z,39.71
2023-06-19T15:14:59.492Z,39.89
2023-06-19T15:17:25.670Z,39.76
2023-06-19T15:19:51.822Z,40.88
2023-06-19T15:22:17.987Z,39.74
2023-06-19T15:24:44.223Z,40.43
2023-06-19T15:27:10.641Z,40.07
2023-06-19T15:29:36.863Z,39.87
2023-06-19T15:32:03.012Z,39.68
2023-06-19T15:34:29.147Z,39.35
2023-06-19T15:36:55.311Z,39.82
2023-06-19T15:39:21.469Z,40.10
2023-06-19T15:41:47.664Z,39.52
2023-06-19T15:44:13.817Z,38.09
2023-06-19T15:46:40.037Z,37.67
2023-06-19T15:49:07.093Z,37.69
2023-06-19T15:51:34.131Z,37.21
2023-06-19T15:54:00.276Z,37.27
2023-06-19T15:56:26.441Z,38.04
2023-06-19T15:58:52.605Z,37.14
2023-06-19T16:01:18.862Z,36.85
2023-06-19T16:03:45.126Z,35.76
2023-06-19T16:06:11.412Z,37.41
2023-06-19T16:08:37.637Z,36.82
2023-06-19T16:11:03.800Z,36.74
2023-06-19T16:13:29.936Z,37.16
2023-06-19T16:15:56.123Z,36.51
2023-06-19T16:18:22.355Z,36.55
2023-06-19T16:20:48.522Z,35.81
2023-06-19T16:23:14.655Z,35.67
2023-06-19T16:25:40.794Z,35.21
2023-06-19T16:28:06.948Z,37.17
2023-06-19T16:30:33.117Z,37.54
2023-06-19T16:32:59.327Z,37.46
2023-06-19T16:35:25.634Z,37.85
2023-06-19T16:37:51.816Z,38.64
2023-06-19T16:40:17.968Z,38.61
2023-06-19T16:42:44.102Z,38.47
2023-06-19T16:45:10.244Z,36.60
2023-06-19T16:47:36.450Z,36.50
2023-06-19T16:50:02.610Z,37.57
2023-06-19T16:52:28.801Z,37.87
2023-06-19T16:54:54.991Z,38.17
2023-06-19T16:57:21.160Z,37.42
2023-06-19T16:59:47.327Z,38.45
2023-06-19T17:02:13.492Z,38.75
2023-06-19T17:04:39.660Z,38.09
2023-06-19T17:07:05.819Z,38.98
2023-06-19T17:09:31.969Z,39.18
2023-06-19T17:11:58.143Z,38.70
2023-06-19T17:14:24.283Z,38.78
2023-06-19T17:16:50.455Z,37.47
2023-06-19T17:19:16.628Z,37.12
2023-06-19T17:21:42.787Z,35.44
2023-06-19T17:24:09.001Z,37.36
2023-06-19T17:26:35.230Z,36.59
2023-06-19T17:29:01.498Z,35.66
2023-06-19T17:31:27.675Z,35.60
2023-06-19T17:33:53.827Z,37.20
2023-06-19T17:36:20.022Z,35.70
2023-06-19T17:38:46.188Z,37.37
2023-06-19T17:41:12.357Z,38.22
2023-06-19T17:43:38.535Z,37.51
2023-06-19T17:46:04.700Z,39.84
2023-06-19T17:48:30.884Z,39.18
2023-06-19T17:50:57.022Z,38.80
2023-06-19T17:53:23.178Z,37.90
2023-06-19T17:55:49.302Z,41.49
2023-06-19T17:58:15.447Z,43.60
2023-06-19T18:00:41.621Z,42.83
2023-06-19T18:03:07.811Z,43.44
2023-06-19T18:05:34.016Z,43.30
2023-06-19T18:08:00.172Z,43.38
2023-06-19T18:10:26.449Z,42.72
2023-06-19T18:12:52.825Z,41.90
2023-06-19T18:15:18.990Z,42.16
2023-06-19T18:17:45.196Z,42.32
2023-06-19T18:20:11.499Z,42.74
2023-06-19T18:22:37.667Z,42.00
2023-06-19T18:25:03.814Z,42.43
2023-06-19T18:27:29.954Z,42.78
2023-06-19T18:29:56.125Z,43.60
2023-06-19T18:32:22.317Z,43.62
2023-06-19T18:34:48.478Z,43.60
2023-06-19T18:37:14.657Z,43.69
2023-06-19T18:39:40.845Z,43.68
2023-06-19T18:42:06.982Z,46.23
2023-06-19T18:44:33.169Z,46.81
2023-06-19T18:46:59.331Z,46.74
2023-06-19T18:49:25.725Z,46.77
2023-06-19T18:51:51.916Z,45.67
2023-06-19T18:54:18.089Z,46.44
2023-06-19T18:56:44.239Z,46.90
2023-06-19T18:59:10.389Z,47.74
2023-06-19T19:01:36.569Z,47.72
2023-06-19T19:04:02.748Z,48.05
2023-06-19T19:06:28.916Z,48.69
2023-06-19T19:08:55.066Z,48.69
2023-06-19T19:11:21.216Z,48.95
2023-06-19T19:13:47.350Z,49.22
2023-06-19T19:16:13.538Z,48.96
2023-06-19T19:18:39.689Z,49.12
2023-06-19T19:21:05.858Z,48.39
2023-06-19T19:23:32.007Z,48.28
2023-06-19T19:25:58.139Z,47.94
2023-06-19T19:28:24.282Z,48.43
2023-06-19T19:30:50.438Z,48.92
2023-06-19T19:33:16.693Z,49.74
2023-06-19T19:35:42.862Z,50.81
2023-06-19T19:38:09.015Z,50.42
2023-06-19T19:40:35.160Z,50.63
2023-06-19T19:43:01.293Z,51.04
2023-06-19T19:45:27.495Z,51.45
2023-06-19T19:47:53.716Z,51.47
2023-06-19T19:50:19.915Z,52.04
2023-06-19T19:52:46.057Z,52.24
2023-06-19T19:55:12.228Z,51.83
2023-06-19T19:57:38.394Z,52.62
2023-06-19T20:00:04.560Z,52.79
2023-06-19T20:02:30.753Z,52.75
2023-06-19T20:04:56.985Z,52.87
2023-06-19T20:07:23.194Z,52.32
2023-06-19T20:09:49.365Z,52.23
2023-06-19T20:12:20.585Z,53.04
2023-06-19T20:14:48.258Z,54.38
2023-06-19T20:17:14.391Z,53.66
2023-06-19T20:19:40.526Z,53.48
2023-06-19T20:22:06.680Z,54.00
2023-06-19T20:24:33.244Z,54.23
2023-06-19T20:26:59.467Z,53.83
2023-06-19T20:29:25.633Z,54.05
2023-06-19T20:31:51.786Z,54.16
2023-06-19T20:34:17.942Z,54.03
2023-06-19T20:36:44.097Z,54.66
2023-06-19T20:39:10.228Z,54.53
2023-06-19T20:41:36.377Z,53.64
2023-06-19T20:44:02.545Z,53.61
2023-06-19T20:46:28.720Z,54.32
2023-06-19T20:48:54.873Z,54.65
2023-06-19T20:51:21.010Z,53.67
2023-06-19T20:53:47.146Z,54.02
2023-06-19T20:56:13.316Z,54.42
2023-06-19T20:58:39.465Z,53.36
2023-06-19T21:01:05.714Z,54.39
2023-06-19T21:03:31.946Z,54.38
2023-06-19T21:05:58.190Z,53.78
2023-06-19T21:08:24.365Z,54.40
2023-06-19T21:10:50.499Z,53.87
2023-06-19T21:13:22.436Z,53.45
2023-06-19T21:15:49.169Z,53.79
2023-06-19T21:18:15.306Z,53.34
2023-06-19T21:20:41.429Z,54.14
2023-06-19T21:23:07.637Z,53.84
2023-06-19T21:25:33.834Z,53.93
2023-06-19T21:27:59.998Z,52.93
2023-06-19T21:30:26.379Z,53.30
2023-06-19T21:32:52.868Z,55.23
2023-06-19T21:35:19.040Z,55.35
2023-06-19T21:37:45.211Z,54.80
2023-06-19T21:40:11.338Z,56.09
2023-06-19T21:42:37.482Z,55.85
2023-06-19T21:45:03.629Z,54.76
2023-06-19T21:47:29.811Z,54.08
2023-06-19T21:49:56.033Z,54.15
2023-06-19T21:52:22.184Z,54.17
2023-06-19T21:54:48.386Z,53.09
2023-06-19T21:57:14.549Z,54.42
2023-06-19T21:59:40.693Z,53.71
2023-06-19T22:02:06.826Z,55.11
2023-06-19T22:04:32.963Z,54.20
2023-06-19T22:06:59.108Z,55.12
2023-06-19T22:09:25.316Z,54.74
2023-06-19T22:11:51.451Z,54.04
2023-06-19T22:14:17.581Z,54.67
2023-06-19T22:16:43.740Z,55.37
2023-06-19T22:19:09.910Z,54.46
2023-06-19T22:21:36.072Z,54.50
2023-06-19T22:24:02.319Z,54.88
2023-06-19T22:26:28.501Z,53.73
2023-06-19T22:28:54.651Z,52.97
2023-06-19T22:31:20.855Z,53.86
2023-06-19T22:33:47.047Z,54.67
2023-06-19T22:36:13.237Z,54.16
2023-06-19T22:38:39.371Z,53.32
2023-06-19T22:41:05.625Z,52.54
2023-06-19T22:43:31.804Z,53.83
2023-06-19T22:45:58.005Z,53.59
2023-06-19T22:48:24.174Z,54.64
2023-06-19T22:50:50.322Z,54.77
2023-06-19T22:53:16.489Z,54.09
2023-06-19T22:55:42.636Z,53.92
2023-06-19T22:58:08.786Z,53.70
2023-06-19T23:00:34.968Z,54.43
2023-06-19T23:03:01.277Z,55.28
2023-06-19T23:05:27.638Z,54.53
2023-06-19T23:07:53.922Z,54.00
2023-06-19T23:10:20.071Z,54.08
2023-06-19T23:12:46.224Z,54.74
2023-06-19T23:15:12.373Z,54.78
2023-06-19T23:17:38.551Z,54.49
2023-06-19T23:20:04.744Z,54.72
2023-06-19T23:22:30.889Z,55.89
2023-06-19T23:24:57.024Z,55.29
2023-06-19T23:27:23.193Z,55.12
2023-06-19T23:29:49.430Z,54.78
2023-06-19T23:32:15.573Z,54.84
2023-06-19T23:34:41.731Z,55.33
2023-06-19T23:37:07.927Z,54.21
2023-06-19T23:39:34.100Z,54.53
2023-06-19T23:42:00.280Z,55.74
2023-06-19T23:44:26.441Z,56.33
2023-06-19T23:46:52.656Z,56.61
2023-06-19T23:49:18.852Z,55.66
2023-06-19T23:51:44.991Z,55.90
2023-06-19T23:54:11.139Z,55.86
2023-06-19T23:56:37.297Z,55.66
2023-06-19T23:59:03.466Z,57.17
